»·PEaware :: N586NN KRDM-KUAO

N586NN :: KRDM-KUAO

FLIGHT INFORMATION

Flight Status: Arrived
Operator: Privately registered:
United States
More flights under this callsign
Pilot: Paul T. (5885)
Aircraft: CESSNA 172 SKYHAWK
(C172)
More flights by this aircraft type
Origin: KRDM Roberts
United States
Destination: KUAO Aurora State
United States
More flights between these airports :: More routes between these airports
Route: +DSD MAVER
File this flight plan on PilotEdge
Remarks:
Altitude:
(Current/Filed)
12,000ft
Speed:
(Current/Filed)
100kts
Departed: 11-Mar-17 02:36 PM
Arrived: 11-Mar-17 03:35 PM
Distance/Time
Traveled:
91nm/0:59
Distance/Time
To Go:
Arrived

Flight Plot

Page will automatically refresh every two minutes.

Flight plan parsing failed; only flown route is shown


Map Options




Map Legend


Flown Route
Filed Route
Departure Airport
Arrival Airport
Navaid (VOR, NDB)
Fix

Horizontal Profiles

Position Reports

Time Latitude Longitude Heading Altitude Ground
Speed
11-Mar-17 14:36 44.841974 -122.160883 301 8533ft 88kts
11-Mar-17 14:37 44.847871 -122.172430 301 8546ft 86kts
11-Mar-17 14:38 44.852962 -122.182648 301 8537ft 87kts
11-Mar-17 14:39 44.859320 -122.193672 306 8564ft 85kts
11-Mar-17 14:40 44.864976 -122.204701 297 8561ft 84kts
11-Mar-17 14:41 44.869944 -122.216384 298 8546ft 86kts
11-Mar-17 14:42 44.876163 -122.227176 307 8548ft 87kts
11-Mar-17 14:43 44.882489 -122.237979 299 8526ft 87kts
11-Mar-17 14:44 44.888637 -122.249806 304 8540ft 86kts
11-Mar-17 14:45 44.895597 -122.260475 309 8513ft 89kts
11-Mar-17 14:46 44.902777 -122.271305 310 8530ft 87kts
11-Mar-17 14:47 44.910000 -122.281675 307 8476ft 92kts
11-Mar-17 14:48 44.917030 -122.293187 304 8446ft 92kts
11-Mar-17 14:49 44.923624 -122.304981 306 8378ft 96kts
11-Mar-17 14:50 44.930978 -122.316743 306 8306ft 98kts
11-Mar-17 14:51 44.937735 -122.328257 306 8294ft 95kts
11-Mar-17 14:52 44.944773 -122.338924 311 8261ft 96kts
11-Mar-17 14:53 44.952138 -122.349005 309 8214ft 97kts
11-Mar-17 14:54 44.958917 -122.359393 306 8127ft 100kts
11-Mar-17 14:55 44.964824 -122.370526 299 8073ft 100kts
11-Mar-17 14:56 44.971548 -122.381063 316 7994ft 105kts
11-Mar-17 14:57 44.979956 -122.389899 319 7885ft 108kts
11-Mar-17 14:58 44.987932 -122.399177 307 7784ft 105kts
11-Mar-17 14:59 44.994883 -122.410288 306 7691ft 104kts
11-Mar-17 15:00 45.001729 -122.421391 306 7583ft 104kts
11-Mar-17 15:01 45.008784 -122.432236 308 7488ft 105kts
11-Mar-17 15:02 45.016279 -122.442824 310 7391ft 105kts
11-Mar-17 15:03 45.023828 -122.453131 311 7299ft 105kts
11-Mar-17 15:04 45.031296 -122.463430 310 7209ft 105kts
11-Mar-17 15:05 45.038443 -122.474098 304 7113ft 104kts
11-Mar-17 15:06 45.044806 -122.485771 301 7014ft 104kts
11-Mar-17 15:07 45.051085 -122.497432 303 6935ft 103kts
11-Mar-17 15:08 45.057400 -122.509021 301 6841ft 103kts
11-Mar-17 15:09 45.063702 -122.520347 308 6743ft 105kts
11-Mar-17 15:10 45.070891 -122.531045 308 6655ft 105kts
11-Mar-17 15:11 45.077904 -122.541601 307 6459ft 106kts
11-Mar-17 15:12 45.085033 -122.552561 307 6337ft 102kts
11-Mar-17 15:13 45.091992 -122.563527 305 6325ft 100kts
11-Mar-17 15:14 45.098868 -122.574578 307 6322ft 100kts
11-Mar-17 15:15 45.106454 -122.584922 312 6170ft 108kts
11-Mar-17 15:16 45.114669 -122.595847 310 5944ft 107kts
11-Mar-17 15:17 45.122599 -122.607436 307 5622ft 113kts
11-Mar-17 15:18 45.129422 -122.617181 309 5382ft 115kts
11-Mar-17 15:19 45.136010 -122.626581 305 5136ft 114kts
11-Mar-17 15:20 45.142384 -122.637115 305 4850ft 116kts
11-Mar-17 15:21 45.147744 -122.648368 295 4654ft 108kts
11-Mar-17 15:22 45.153162 -122.659405 302 4493ft 104kts
11-Mar-17 15:23 45.158279 -122.672603 284 4313ft 104kts
11-Mar-17 15:24 45.161462 -122.685364 290 4192ft 103kts
11-Mar-17 15:25 45.166078 -122.698805 301 3959ft 109kts
11-Mar-17 15:26 45.172153 -122.713360 304 3783ft 111kts
11-Mar-17 15:27 45.179543 -122.729981 309 3593ft 103kts
11-Mar-17 15:28 45.186675 -122.744618 302 3358ft 97kts
11-Mar-17 15:29 45.192953 -122.758979 339 3094ft 85kts
11-Mar-17 15:30 45.201243 -122.763622 348 2695ft 68kts
11-Mar-17 15:31 45.208681 -122.767293 353 2187ft 73kts
11-Mar-17 15:32 45.216654 -122.770352 342 1673ft 81kts
11-Mar-17 15:33 45.227200 -122.775435 44 888ft 83kts
11-Mar-17 15:34 45.237476 -122.771840 14 282ft 87kts
11-Mar-17 15:35 45.246703 -122.770090 6 197ft 42kts
11-Mar-17 15:36 45.250822 -122.769401 7 200ft 15kts
11-Mar-17 15:37 45.250653 -122.768246 190 201ft 10kts
11-Mar-17 15:38 45.249492 -122.767684 111 199ft 10kts
11-Mar-17 15:39 45.249277 -122.767394 246 199ft 0kts
11-Mar-17 15:40 45.249277 -122.767394 246 199ft 0kts
11-Mar-17 15:41 45.249277 -122.767394 246 199ft 0kts
11-Mar-17 15:42 45.249277 -122.767394 246 199ft 0kts

Navigation Log

Ident Type
Flight plan parsing failed, navigation log unavailable